createdAt,value
2023-03-02T00:01:50.310Z,103.90
2023-03-02T00:04:21.864Z,91.80
2023-03-02T00:06:50.768Z,85.40
2023-03-02T00:09:19.397Z,96.65
2023-03-02T00:11:47.882Z,112.57
2023-03-02T00:14:16.333Z,87.97
2023-03-02T00:16:44.790Z,134.35
2023-03-02T00:19:14.674Z,109.75
2023-03-02T00:21:43.188Z,109.93
2023-03-02T00:24:11.639Z,60.78
2023-03-02T00:26:40.107Z,75.30
2023-03-02T00:29:08.703Z,89.43
2023-03-02T00:31:38.000Z,84.93
2023-03-02T00:34:06.736Z,83.60
2023-03-02T00:36:36.551Z,51.70
2023-03-02T00:39:05.492Z,64.32
2023-03-02T00:41:34.048Z,50.25
2023-03-02T00:44:02.551Z,56.38
2023-03-02T00:46:31.516Z,55.28
2023-03-02T00:49:00.940Z,44.17
2023-03-02T00:51:29.434Z,51.67
2023-03-02T00:54:02.921Z,51.53
2023-03-02T00:56:31.989Z,42.30
2023-03-02T00:59:00.976Z,42.75
2023-03-02T01:01:29.481Z,42.08
2023-03-02T01:03:58.012Z,41.65
2023-03-02T01:06:26.609Z,41.10
2023-03-02T01:08:55.434Z,46.20
2023-03-02T01:11:26.684Z,40.28
2023-03-02T01:13:55.174Z,50.38
2023-03-02T01:16:26.032Z,40.60
2023-03-02T01:18:54.463Z,42.88
2023-03-02T01:21:22.962Z,40.67
2023-03-02T01:23:51.751Z,39.40
2023-03-02T01:26:20.262Z,38.13
2023-03-02T01:28:55.186Z,41.42
2023-03-02T01:31:23.811Z,39.60
2023-03-02T01:33:52.289Z,48.42
2023-03-02T01:36:20.919Z,41.78
2023-03-02T01:38:49.627Z,37.75
2023-03-02T01:41:18.349Z,35.85
2023-03-02T01:43:50.625Z,38.70
2023-03-02T01:46:20.088Z,39.35
2023-03-02T01:48:53.948Z,42.80
2023-03-02T01:51:31.636Z,40.47
2023-03-02T01:54:02.529Z,38.15
2023-03-02T01:56:34.758Z,44.38
2023-03-02T01:59:07.643Z,47.90
2023-03-02T02:04:04.537Z,53.00
2023-03-02T02:06:34.852Z,77.18
2023-03-02T02:09:04.762Z,52.40
2023-03-02T02:11:33.381Z,49.90
2023-03-02T02:14:02.639Z,48.03
2023-03-02T02:16:36.126Z,49.40
2023-03-02T02:19:09.516Z,54.97
2023-03-02T02:21:38.325Z,50.45
2023-03-02T02:24:10.649Z,43.70
2023-03-02T02:26:43.655Z,47.65
2023-03-02T02:29:14.653Z,52.90
2023-03-02T02:31:46.530Z,50.40
2023-03-02T02:34:17.956Z,47.55
2023-03-02T02:36:48.951Z,48.67
2023-03-02T02:39:20.949Z,56.05
2023-03-02T02:41:51.923Z,52.05
2023-03-02T02:44:21.228Z,49.08
2023-03-02T02:46:49.936Z,50.47
2023-03-02T02:49:26.919Z,72.47
2023-03-02T02:51:55.418Z,71.90
2023-03-02T02:54:24.210Z,88.25
2023-03-02T02:56:54.914Z,127.45
2023-03-02T02:59:25.313Z,91.95
2023-03-02T03:01:54.141Z,48.10
2023-03-02T03:04:24.307Z,58.33
2023-03-02T03:06:53.741Z,60.50
2023-03-02T03:09:22.413Z,49.95
2023-03-02T03:11:52.164Z,43.33
2023-03-02T03:14:23.906Z,51.13
2023-03-02T03:16:54.561Z,46.80
2023-03-02T03:19:24.484Z,52.17
2023-03-02T03:21:55.432Z,51.90
2023-03-02T03:24:25.741Z,44.35
2023-03-02T03:26:55.226Z,60.15
2023-03-02T03:29:26.260Z,63.58
2023-03-02T03:31:59.526Z,58.13
2023-03-02T03:34:28.657Z,58.00
2023-03-02T03:37:01.696Z,65.20
2023-03-02T03:39:34.233Z,58.42
2023-03-02T03:42:02.931Z,60.15
2023-03-02T03:44:32.858Z,62.42
2023-03-02T03:47:01.360Z,56.75
2023-03-02T03:49:30.406Z,55.42
2023-03-02T03:51:59.242Z,59.20
2023-03-02T03:54:29.928Z,59.78
2023-03-02T03:56:58.741Z,58.50
2023-03-02T03:59:27.810Z,57.40
2023-03-02T04:02:01.739Z,57.78
2023-03-02T04:04:36.019Z,62.25
2023-03-02T04:07:14.187Z,58.67
2023-03-02T04:09:44.328Z,57.25
2023-03-02T04:12:14.986Z,61.60
2023-03-02T04:14:53.114Z,64.97
2023-03-02T04:17:22.701Z,67.45
2023-03-02T04:19:51.584Z,66.28
2023-03-02T04:22:20.214Z,69.97
2023-03-02T04:24:49.725Z,63.35
2023-03-02T04:27:19.602Z,65.30
2023-03-02T04:29:48.431Z,68.90
2023-03-02T04:32:16.964Z,67.20
2023-03-02T04:34:51.163Z,64.75
2023-03-02T04:37:19.517Z,60.92
2023-03-02T04:39:51.498Z,64.78
2023-03-02T04:42:20.068Z,72.38
2023-03-02T04:44:48.344Z,79.68
2023-03-02T04:47:16.743Z,66.97
2023-03-02T04:49:45.093Z,73.95
2023-03-02T04:52:14.696Z,76.78
2023-03-02T04:54:43.219Z,76.03
2023-03-02T04:57:11.619Z,81.10
2023-03-02T04:59:40.159Z,87.53
2023-03-02T05:02:08.669Z,77.57
2023-03-02T05:04:37.113Z,77.47
2023-03-02T05:07:05.590Z,79.55
2023-03-02T05:09:35.397Z,77.47
2023-03-02T05:12:03.855Z,78.95
2023-03-02T05:14:32.740Z,73.82
2023-03-02T05:17:01.142Z,79.22
2023-03-02T05:19:29.870Z,77.72
2023-03-02T05:21:58.384Z,73.75
2023-03-02T05:24:26.900Z,81.28
2023-03-02T05:26:56.723Z,72.80
2023-03-02T05:29:25.186Z,80.28
2023-03-02T05:31:53.529Z,84.70
2023-03-02T05:34:21.810Z,84.32
2023-03-02T05:36:50.029Z,82.95
2023-03-02T05:39:18.189Z,85.80
2023-03-02T05:41:48.516Z,87.50
2023-03-02T05:44:18.088Z,90.78
2023-03-02T05:46:46.589Z,86.82
2023-03-02T05:49:14.784Z,88.05
2023-03-02T05:51:43.087Z,95.78
2023-03-02T05:54:11.252Z,92.72
2023-03-02T05:56:39.586Z,97.78
2023-03-02T05:59:07.703Z,107.78
2023-03-02T06:01:38.776Z,99.68
2023-03-02T06:04:07.215Z,101.43
2023-03-02T06:06:35.851Z,96.45
2023-03-02T06:09:04.614Z,101.15
2023-03-02T06:11:32.904Z,105.70
2023-03-02T06:14:01.052Z,101.88
2023-03-02T06:16:29.131Z,103.85
2023-03-02T06:18:58.720Z,100.00
2023-03-02T06:21:26.840Z,103.95
2023-03-02T06:23:55.122Z,103.25
2023-03-02T06:26:23.323Z,109.57
2023-03-02T06:28:53.769Z,99.68
2023-03-02T06:31:22.652Z,103.90
2023-03-02T06:33:50.939Z,90.60
2023-03-02T06:36:20.473Z,88.00
2023-03-02T06:38:48.791Z,82.25
2023-03-02T06:41:17.528Z,86.55
2023-03-02T06:43:45.935Z,89.93
2023-03-02T06:46:14.201Z,85.68
2023-03-02T06:48:42.404Z,80.13
2023-03-02T06:51:10.504Z,81.95
2023-03-02T06:53:40.130Z,87.22
2023-03-02T06:56:08.982Z,74.57
2023-03-02T06:58:37.817Z,81.30
2023-03-02T07:01:07.761Z,94.03
2023-03-02T07:03:36.884Z,85.57
2023-03-02T07:06:05.463Z,101.35
2023-03-02T07:08:34.381Z,96.95
2023-03-02T07:11:08.677Z,110.13
2023-03-02T07:13:37.980Z,102.63
2023-03-02T07:16:10.570Z,110.03
2023-03-02T07:18:38.783Z,120.70
2023-03-02T07:21:07.603Z,145.30
2023-03-02T07:23:36.087Z,201.25
2023-03-02T07:26:08.534Z,185.15
2023-03-02T07:28:42.058Z,151.40
2023-03-02T07:31:11.231Z,160.18
2023-03-02T07:33:40.628Z,155.70
2023-03-02T07:36:13.442Z,135.73
2023-03-02T07:38:42.480Z,141.07
2023-03-02T07:41:12.358Z,146.48
2023-03-02T07:43:42.020Z,126.78
2023-03-02T07:46:10.758Z,117.20
2023-03-02T07:48:39.312Z,108.85
2023-03-02T07:51:09.102Z,105.97
2023-03-02T07:53:37.326Z,101.63
2023-03-02T07:56:12.897Z,95.55
2023-03-02T07:58:43.159Z,86.35
2023-03-02T08:01:11.510Z,83.07
2023-03-02T08:03:40.186Z,85.78
2023-03-02T08:06:11.627Z,81.60
2023-03-02T08:08:40.127Z,83.38
2023-03-02T08:11:10.819Z,114.63
2023-03-02T08:13:39.770Z,81.85
2023-03-02T08:16:13.971Z,84.95
2023-03-02T08:18:43.505Z,88.37
2023-03-02T08:21:16.433Z,88.20
2023-03-02T08:23:45.081Z,89.00
2023-03-02T08:26:17.099Z,91.55
2023-03-02T08:28:46.591Z,85.32
2023-03-02T08:31:16.409Z,80.43
2023-03-02T08:33:45.939Z,77.82
2023-03-02T08:36:16.640Z,76.85
2023-03-02T08:38:45.328Z,78.78
2023-03-02T08:41:17.616Z,82.88
2023-03-02T08:43:46.313Z,102.65
2023-03-02T08:46:17.941Z,75.80
2023-03-02T08:48:46.771Z,143.23
2023-03-02T08:51:19.222Z,100.13
2023-03-02T08:53:50.421Z,85.10
2023-03-02T08:56:21.020Z,87.05
2023-03-02T08:58:49.877Z,96.43
2023-03-02T09:01:22.181Z,93.93
2023-03-02T09:03:50.604Z,144.25
2023-03-02T09:06:19.151Z,122.13
2023-03-02T09:08:48.653Z,111.43
2023-03-02T09:11:19.232Z,80.18
2023-03-02T09:13:47.475Z,113.18
2023-03-02T09:16:16.301Z,81.00
2023-03-02T09:18:46.042Z,77.90
2023-03-02T09:21:14.284Z,75.25
2023-03-02T09:23:42.615Z,69.47
2023-03-02T09:26:11.449Z,86.43
2023-03-02T09:28:41.306Z,81.15
2023-03-02T09:31:10.232Z,70.88
2023-03-02T09:33:38.885Z,96.28
2023-03-02T09:36:10.040Z,74.75
2023-03-02T09:38:38.502Z,96.53
2023-03-02T09:41:23.125Z,76.82
2023-03-02T09:43:54.803Z,62.25
2023-03-02T09:46:25.485Z,76.10
2023-03-02T09:49:05.116Z,70.40
2023-03-02T09:51:39.213Z,98.68
2023-03-02T09:54:11.039Z,161.68
2023-03-02T09:56:41.642Z,145.15
2023-03-02T09:59:14.387Z,140.90
2023-03-02T10:01:46.388Z,98.65
2023-03-02T10:04:23.687Z,91.03
2023-03-02T10:06:57.323Z,63.72
2023-03-02T10:09:26.273Z,76.30
2023-03-02T10:12:10.017Z,79.40
2023-03-02T10:14:41.273Z,90.63
2023-03-02T10:17:19.440Z,129.52
2023-03-02T10:19:49.475Z,127.93
2023-03-02T10:22:21.633Z,67.13
2023-03-02T10:24:54.446Z,91.22
2023-03-02T10:29:52.773Z,91.03
2023-03-02T10:32:22.587Z,204.20
2023-03-02T10:34:51.625Z,112.45
2023-03-02T10:37:23.039Z,57.38
2023-03-02T10:39:51.558Z,64.50
2023-03-02T10:42:24.121Z,43.08
2023-03-02T10:44:54.129Z,55.60
2023-03-02T10:47:26.646Z,44.83
2023-03-02T10:49:55.895Z,47.83
2023-03-02T10:52:26.344Z,53.13
2023-03-02T10:55:03.863Z,46.08
2023-03-02T10:57:36.224Z,45.88
2023-03-02T11:00:06.509Z,43.67
2023-03-02T11:02:37.522Z,46.40
2023-03-02T11:05:39.630Z,87.03
2023-03-02T11:08:11.055Z,62.40
2023-03-02T11:10:40.656Z,55.85
2023-03-02T11:13:18.349Z,49.50
2023-03-02T11:15:48.700Z,50.80
2023-03-02T11:18:25.281Z,49.83
2023-03-02T11:20:54.710Z,40.67
2023-03-02T11:23:28.629Z,51.90
2023-03-02T11:25:59.300Z,43.08
2023-03-02T11:28:34.738Z,48.58
2023-03-02T11:31:04.564Z,43.60
2023-03-02T11:33:36.771Z,43.20
2023-03-02T11:36:07.726Z,56.20
2023-03-02T11:38:42.322Z,177.27
2023-03-02T11:41:16.332Z,64.93
2023-03-02T11:43:44.777Z,44.40
2023-03-02T11:46:24.735Z,230.70
2023-03-02T11:48:57.836Z,82.60
2023-03-02T11:51:28.496Z,107.72
2023-03-02T11:54:00.023Z,44.80
2023-03-02T11:56:31.680Z,36.08
2023-03-02T11:59:01.812Z,32.58
2023-03-02T12:01:30.572Z,38.95
2023-03-02T12:04:08.647Z,40.50
2023-03-02T12:06:38.706Z,34.33
2023-03-02T12:09:33.220Z,31.95
2023-03-02T12:12:04.829Z,33.20
2023-03-02T12:14:38.717Z,75.50
2023-03-02T12:17:08.471Z,36.40
2023-03-02T12:19:43.642Z,40.00
2023-03-02T12:22:14.544Z,31.45
2023-03-02T12:24:45.676Z,38.60
2023-03-02T12:27:27.381Z,42.97
2023-03-02T12:29:59.109Z,36.17
2023-03-02T12:32:28.985Z,44.83
2023-03-02T12:35:01.595Z,51.45
2023-03-02T12:37:35.055Z,43.15
2023-03-02T12:40:24.520Z,56.10
2023-03-02T12:43:01.368Z,45.53
2023-03-02T12:45:36.837Z,39.58
2023-03-02T12:48:09.240Z,40.20
2023-03-02T12:50:40.830Z,70.28
2023-03-02T12:53:18.250Z,45.60
2023-03-02T12:55:49.381Z,40.38
2023-03-02T12:58:20.728Z,34.75
2023-03-02T13:00:53.646Z,40.22
2023-03-02T13:03:22.441Z,70.82
2023-03-02T13:05:51.101Z,72.70
2023-03-02T13:08:21.182Z,64.68
2023-03-02T13:10:51.347Z,98.85
2023-03-02T13:13:22.473Z,62.50
2023-03-02T13:15:54.737Z,47.25
2023-03-02T13:18:24.036Z,40.53
2023-03-02T13:20:52.933Z,50.10
2023-03-02T13:23:21.681Z,36.15
2023-03-02T13:25:51.119Z,36.22
2023-03-02T13:28:31.370Z,39.55
2023-03-02T13:31:00.714Z,32.30
2023-03-02T13:33:29.784Z,43.88
2023-03-02T13:35:58.476Z,33.53
2023-03-02T13:38:28.239Z,33.88
2023-03-02T13:40:58.351Z,34.13
2023-03-02T13:43:37.058Z,39.05
2023-03-02T13:46:06.967Z,46.53
2023-03-02T13:48:35.781Z,34.03
2023-03-02T13:51:05.214Z,36.38
2023-03-02T13:53:38.053Z,38.35
2023-03-02T13:56:06.702Z,48.00
2023-03-02T13:58:39.400Z,40.22
2023-03-02T14:01:08.829Z,34.42
2023-03-02T14:03:37.363Z,40.53
2023-03-02T14:06:07.004Z,37.65
2023-03-02T14:08:35.430Z,35.83
2023-03-02T14:11:04.716Z,48.17
2023-03-02T14:13:36.959Z,32.15
2023-03-02T14:16:07.343Z,30.95
2023-03-02T14:18:42.668Z,39.60
2023-03-02T14:21:13.670Z,31.67
2023-03-02T14:23:42.258Z,35.95
2023-03-02T14:26:21.042Z,38.47
2023-03-02T14:28:59.926Z,40.30
2023-03-02T14:31:35.131Z,42.72
2023-03-02T14:34:07.262Z,39.55
2023-03-02T14:36:36.065Z,41.00
2023-03-02T14:39:05.592Z,34.97
2023-03-02T14:41:43.919Z,41.03
2023-03-02T14:44:16.268Z,42.65
2023-03-02T14:46:46.188Z,38.95
2023-03-02T14:49:14.962Z,43.17
2023-03-02T14:51:44.781Z,34.15
2023-03-02T14:54:14.711Z,44.63
2023-03-02T14:56:45.897Z,41.45
2023-03-02T14:59:15.174Z,47.38
2023-03-02T15:01:44.652Z,53.83
2023-03-02T15:04:14.659Z,62.17
2023-03-02T15:06:44.074Z,64.88
2023-03-02T15:09:13.692Z,69.38
2023-03-02T15:11:42.603Z,78.30
2023-03-02T15:14:11.144Z,82.55
2023-03-02T15:16:39.934Z,79.65
2023-03-02T15:19:08.348Z,94.97
2023-03-02T15:21:41.600Z,97.85
2023-03-02T15:24:10.596Z,108.97
2023-03-02T15:26:40.939Z,121.03
2023-03-02T15:29:09.706Z,135.80
2023-03-02T15:31:38.658Z,139.65
2023-03-02T15:34:07.384Z,134.00
2023-03-02T15:36:35.948Z,135.30
2023-03-02T15:39:07.780Z,143.25
2023-03-02T15:41:38.923Z,163.23
2023-03-02T15:44:07.759Z,174.18
2023-03-02T15:46:37.026Z,171.43
2023-03-02T15:49:05.671Z,167.95
2023-03-02T15:51:34.283Z,164.60
2023-03-02T15:54:04.852Z,168.15
2023-03-02T15:56:43.739Z,169.18
2023-03-02T15:59:12.922Z,189.80
2023-03-02T16:01:41.860Z,186.32
2023-03-02T16:04:10.415Z,184.32
2023-03-02T16:06:38.904Z,177.27
2023-03-02T16:09:07.588Z,171.18
2023-03-02T16:11:37.710Z,170.93
2023-03-02T16:14:06.486Z,156.73
2023-03-02T16:16:35.033Z,172.30
2023-03-02T16:19:03.749Z,171.90
2023-03-02T16:21:32.536Z,162.18
2023-03-02T16:24:03.980Z,154.13
2023-03-02T16:26:33.309Z,154.13
2023-03-02T16:29:03.253Z,159.05
2023-03-02T16:31:33.876Z,168.57
2023-03-02T16:34:07.058Z,183.25
2023-03-02T16:36:36.110Z,152.52
2023-03-02T16:39:05.658Z,124.90
2023-03-02T16:41:35.767Z,151.25
2023-03-02T16:44:05.821Z,151.23
2023-03-02T16:46:36.745Z,152.90
2023-03-02T16:49:05.545Z,145.05
2023-03-02T16:51:34.485Z,135.70
2023-03-02T16:54:02.901Z,140.27
2023-03-02T16:56:31.492Z,138.50
2023-03-02T16:59:02.324Z,152.80
2023-03-02T17:01:32.347Z,157.38
2023-03-02T17:04:06.294Z,134.88
2023-03-02T17:06:34.852Z,126.95
2023-03-02T17:09:03.520Z,115.55
2023-03-02T17:11:32.403Z,105.57
2023-03-02T17:14:00.888Z,98.70
2023-03-02T17:16:29.488Z,117.07
2023-03-02T17:19:02.508Z,95.97
2023-03-02T17:21:31.142Z,100.25
2023-03-02T17:23:59.598Z,107.07
2023-03-02T17:26:28.406Z,102.20
2023-03-02T17:28:56.966Z,104.50
2023-03-02T17:31:25.650Z,105.45
2023-03-02T17:33:54.404Z,103.45
2023-03-02T17:36:24.362Z,177.98
2023-03-02T17:38:52.958Z,96.90
2023-03-02T17:41:21.550Z,99.95
2023-03-02T17:43:50.126Z,123.57
2023-03-02T17:46:20.267Z,100.10
2023-03-02T17:48:49.830Z,99.22
2023-03-02T17:51:18.900Z,82.38
2023-03-02T17:53:49.884Z,89.95
2023-03-02T17:56:19.623Z,96.82
2023-03-02T17:58:48.542Z,94.05
2023-03-02T18:01:17.121Z,62.17
2023-03-02T18:03:46.151Z,68.72
2023-03-02T18:06:14.851Z,61.20
2023-03-02T18:08:45.644Z,53.47
2023-03-02T18:11:15.492Z,66.55
2023-03-02T18:13:44.086Z,55.00
2023-03-02T18:16:12.924Z,62.28
2023-03-02T18:18:41.916Z,70.18
2023-03-02T18:21:10.601Z,78.47
2023-03-02T18:23:39.791Z,105.03
2023-03-02T18:26:12.526Z,73.70
2023-03-02T18:28:44.319Z,91.55
2023-03-02T18:31:14.097Z,70.47
2023-03-02T18:36:50.088Z,115.90
2023-03-02T18:39:18.685Z,78.90
2023-03-02T18:41:48.626Z,100.72
2023-03-02T18:44:31.226Z,85.22
2023-03-02T18:47:00.860Z,106.32
2023-03-02T18:49:29.621Z,94.05
2023-03-02T18:52:11.665Z,73.75
2023-03-02T18:54:40.972Z,83.63
2023-03-02T18:57:09.529Z,60.08
2023-03-02T18:59:39.789Z,60.28
2023-03-02T19:02:10.008Z,50.50
2023-03-02T19:04:38.643Z,56.40
2023-03-02T19:07:12.424Z,52.10
2023-03-02T19:09:40.959Z,59.20
2023-03-02T19:12:12.587Z,56.08
2023-03-02T19:14:43.358Z,55.97
2023-03-02T19:17:11.854Z,51.65
2023-03-02T19:19:42.580Z,53.97
2023-03-02T19:22:12.052Z,53.17
2023-03-02T19:24:41.535Z,56.65
2023-03-02T19:27:11.891Z,66.53
2023-03-02T19:29:44.937Z,65.03
2023-03-02T19:32:14.879Z,46.65
2023-03-02T19:34:45.661Z,48.22
2023-03-02T19:37:19.913Z,46.67
2023-03-02T19:39:49.802Z,49.28
2023-03-02T19:42:18.380Z,62.40
2023-03-02T19:44:48.425Z,212.50
2023-03-02T19:47:18.302Z,55.47
2023-03-02T19:49:46.810Z,44.83
2023-03-02T19:52:15.332Z,47.38
2023-03-02T19:54:44.678Z,76.47
2023-03-02T19:57:16.290Z,50.55
2023-03-02T19:59:44.814Z,61.55
2023-03-02T20:02:15.889Z,80.85
2023-03-02T20:04:45.047Z,70.63
2023-03-02T20:07:16.069Z,87.13
2023-03-02T20:09:45.491Z,107.32
2023-03-02T20:12:14.677Z,107.57
2023-03-02T20:14:48.578Z,94.30
2023-03-02T20:17:19.597Z,90.50
2023-03-02T20:19:49.361Z,95.95
2023-03-02T20:22:18.518Z,94.90
2023-03-02T20:24:47.031Z,93.15
2023-03-02T20:27:15.758Z,92.57
2023-03-02T20:29:45.118Z,102.82
2023-03-02T20:32:14.708Z,143.60
2023-03-02T20:34:47.415Z,230.23
2023-03-02T20:37:16.918Z,233.88
2023-03-02T20:39:48.041Z,280.45
2023-03-02T20:42:16.849Z,256.10
2023-03-02T20:47:42.588Z,181.85
2023-03-02T20:50:14.853Z,172.52
2023-03-02T20:52:43.620Z,136.77
2023-03-02T20:55:12.534Z,138.20
2023-03-02T20:57:42.024Z,106.93
2023-03-02T21:00:11.899Z,96.00
2023-03-02T21:02:40.784Z,77.93
2023-03-02T21:05:09.615Z,89.95
2023-03-02T21:07:39.902Z,79.35
2023-03-02T21:10:12.206Z,78.60
2023-03-02T21:12:43.498Z,78.65
2023-03-02T21:15:13.105Z,73.22
2023-03-02T21:17:44.893Z,76.13
2023-03-02T21:20:18.900Z,83.73
2023-03-02T21:22:48.937Z,99.82
2023-03-02T21:25:18.006Z,111.75
2023-03-02T21:27:47.050Z,75.82
2023-03-02T21:30:19.887Z,82.72
2023-03-02T21:32:48.802Z,77.45
2023-03-02T21:35:29.318Z,81.18
2023-03-02T21:38:02.511Z,65.90
2023-03-02T21:40:35.566Z,66.25
2023-03-02T21:43:11.384Z,74.43
2023-03-02T21:45:50.842Z,66.53
2023-03-02T21:48:21.853Z,65.15
2023-03-02T21:50:51.253Z,66.43
2023-03-02T21:53:30.586Z,94.50
2023-03-02T21:55:59.305Z,75.05
2023-03-02T21:58:27.884Z,81.43
2023-03-02T22:01:01.607Z,72.40
2023-03-02T22:03:31.142Z,70.03
2023-03-02T22:06:02.029Z,73.40
2023-03-02T22:08:35.299Z,75.05
2023-03-02T22:11:03.899Z,82.43
2023-03-02T22:13:33.752Z,71.95
2023-03-02T22:16:11.922Z,73.20
2023-03-02T22:18:40.796Z,74.88
2023-03-02T22:21:28.142Z,84.55
2023-03-02T22:23:59.920Z,81.00
2023-03-02T22:26:30.883Z,78.35
2023-03-02T22:29:00.258Z,70.07
2023-03-02T22:31:28.741Z,74.32
2023-03-02T22:33:57.246Z,70.65
2023-03-02T22:36:27.155Z,68.53
2023-03-02T22:38:58.700Z,67.57
2023-03-02T22:41:28.828Z,72.68
2023-03-02T22:43:57.720Z,109.32
2023-03-02T22:46:27.570Z,71.07
2023-03-02T22:48:56.337Z,67.78
2023-03-02T22:51:25.832Z,60.67
2023-03-02T22:53:55.501Z,63.85
2023-03-02T22:56:33.400Z,62.97
2023-03-02T22:59:03.733Z,59.70
2023-03-02T23:01:40.084Z,67.82
2023-03-02T23:04:15.278Z,70.20
2023-03-02T23:06:46.262Z,66.05
2023-03-02T23:09:16.947Z,62.65
2023-03-02T23:11:47.501Z,64.10
2023-03-02T23:14:20.138Z,69.57
2023-03-02T23:16:53.606Z,66.68
2023-03-02T23:19:22.160Z,68.32
2023-03-02T23:21:51.626Z,69.22
2023-03-02T23:24:21.956Z,67.85
2023-03-02T23:26:52.842Z,73.07
2023-03-02T23:29:22.399Z,67.15
2023-03-02T23:31:51.531Z,68.97
2023-03-02T23:34:20.084Z,73.85
2023-03-02T23:36:48.543Z,74.90
2023-03-02T23:39:19.385Z,76.93
2023-03-02T23:41:48.044Z,72.45
2023-03-02T23:44:27.818Z,68.60
2023-03-02T23:46:56.342Z,73.03
2023-03-02T23:49:24.943Z,77.82
2023-03-02T23:51:53.663Z,70.70
2023-03-02T23:54:22.668Z,67.53
2023-03-02T23:56:51.218Z,63.05
2023-03-02T23:59:19.749Z,62.65
